sensor_id;sensor_type;location;lat;lon;timestamp;P1;durP1;ratioP1;P2;durP2;ratioP2
19877;SDS011;10101;52.204;9.910;2023-04-19T00:01:18;5.87;;;3.73;;
19877;SDS011;10101;52.204;9.910;2023-04-19T00:03:46;5.37;;;4.03;;
19877;SDS011;10101;52.204;9.910;2023-04-19T00:06:13;11.03;;;3.90;;
19877;SDS011;10101;52.204;9.910;2023-04-19T00:08:40;5.07;;;3.53;;
19877;SDS011;10101;52.204;9.910;2023-04-19T00:11:06;6.93;;;3.50;;
19877;SDS011;10101;52.204;9.910;2023-04-19T00:13:33;6.07;;;3.67;;
19877;SDS011;10101;52.204;9.910;2023-04-19T00:16:00;5.57;;;3.23;;
19877;SDS011;10101;52.204;9.910;2023-04-19T00:18:27;7.63;;;3.30;;
19877;SDS011;10101;52.204;9.910;2023-04-19T00:20:55;4.73;;;3.23;;
19877;SDS011;10101;52.204;9.910;2023-04-19T00:23:22;5.07;;;3.23;;
19877;SDS011;10101;52.204;9.910;2023-04-19T00:25:49;4.20;;;3.13;;
19877;SDS011;10101;52.204;9.910;2023-04-19T00:28:16;8.17;;;3.47;;
19877;SDS011;10101;52.204;9.910;2023-04-19T00:30:43;5.97;;;3.27;;
19877;SDS011;10101;52.204;9.910;2023-04-19T00:33:10;5.00;;;3.33;;
19877;SDS011;10101;52.204;9.910;2023-04-19T00:35:37;5.20;;;3.13;;
19877;SDS011;10101;52.204;9.910;2023-04-19T00:38:06;6.03;;;3.00;;
19877;SDS011;10101;52.204;9.910;2023-04-19T00:40:33;4.07;;;2.90;;
19877;SDS011;10101;52.204;9.910;2023-04-19T00:43:01;4.17;;;2.60;;
19877;SDS011;10101;52.204;9.910;2023-04-19T00:45:28;4.40;;;2.60;;
19877;SDS011;10101;52.204;9.910;2023-04-19T00:47:54;4.57;;;3.10;;
19877;SDS011;10101;52.204;9.910;2023-04-19T00:50:21;4.10;;;2.83;;
19877;SDS011;10101;52.204;9.910;2023-04-19T00:52:48;6.07;;;2.70;;
19877;SDS011;10101;52.204;9.910;2023-04-19T00:55:17;5.50;;;2.87;;
19877;SDS011;10101;52.204;9.910;2023-04-19T00:57:44;6.33;;;3.03;;
19877;SDS011;10101;52.204;9.910;2023-04-19T01:00:11;3.43;;;2.57;;
19877;SDS011;10101;52.204;9.910;2023-04-19T01:02:39;3.90;;;2.50;;
19877;SDS011;10101;52.204;9.910;2023-04-19T01:05:06;3.40;;;2.43;;
19877;SDS011;10101;52.204;9.910;2023-04-19T01:07:33;3.90;;;2.67;;
19877;SDS011;10101;52.204;9.910;2023-04-19T01:10:00;5.17;;;2.37;;
19877;SDS011;10101;52.204;9.910;2023-04-19T01:12:28;3.80;;;2.20;;
19877;SDS011;10101;52.204;9.910;2023-04-19T01:14:55;4.33;;;2.80;;
19877;SDS011;10101;52.204;9.910;2023-04-19T01:17:22;6.00;;;2.40;;
19877;SDS011;10101;52.204;9.910;2023-04-19T01:19:49;4.60;;;2.53;;
19877;SDS011;10101;52.204;9.910;2023-04-19T01:22:26;4.37;;;2.10;;
19877;SDS011;10101;52.204;9.910;2023-04-19T01:24:54;6.57;;;2.47;;
19877;SDS011;10101;52.204;9.910;2023-04-19T01:27:21;5.20;;;2.70;;
19877;SDS011;10101;52.204;9.910;2023-04-19T01:29:47;3.83;;;2.40;;
19877;SDS011;10101;52.204;9.910;2023-04-19T01:32:14;7.57;;;3.33;;
19877;SDS011;10101;52.204;9.910;2023-04-19T01:34:41;4.20;;;2.60;;
19877;SDS011;10101;52.204;9.910;2023-04-19T01:37:08;4.47;;;2.50;;
19877;SDS011;10101;52.204;9.910;2023-04-19T01:39:36;5.97;;;2.63;;
19877;SDS011;10101;52.204;9.910;2023-04-19T01:42:03;5.00;;;2.63;;
19877;SDS011;10101;52.204;9.910;2023-04-19T01:44:30;4.77;;;3.07;;
19877;SDS011;10101;52.204;9.910;2023-04-19T01:46:56;3.57;;;2.53;;
19877;SDS011;10101;52.204;9.910;2023-04-19T01:49:23;6.63;;;2.63;;
19877;SDS011;10101;52.204;9.910;2023-04-19T01:51:50;8.07;;;2.97;;
19877;SDS011;10101;52.204;9.910;2023-04-19T01:54:16;4.87;;;2.57;;
19877;SDS011;10101;52.204;9.910;2023-04-19T01:56:44;3.23;;;2.53;;
19877;SDS011;10101;52.204;9.910;2023-04-19T01:59:11;5.10;;;2.63;;
19877;SDS011;10101;52.204;9.910;2023-04-19T02:01:38;5.37;;;2.67;;
19877;SDS011;10101;52.204;9.910;2023-04-19T02:04:05;3.93;;;2.50;;
19877;SDS011;10101;52.204;9.910;2023-04-19T02:06:32;4.23;;;2.40;;
19877;SDS011;10101;52.204;9.910;2023-04-19T02:08:59;3.80;;;2.60;;
19877;SDS011;10101;52.204;9.910;2023-04-19T02:11:26;4.03;;;2.20;;
19877;SDS011;10101;52.204;9.910;2023-04-19T02:13:54;3.27;;;2.37;;
19877;SDS011;10101;52.204;9.910;2023-04-19T02:16:20;5.70;;;2.60;;
19877;SDS011;10101;52.204;9.910;2023-04-19T02:18:47;3.90;;;2.50;;
19877;SDS011;10101;52.204;9.910;2023-04-19T02:21:16;3.53;;;2.30;;
19877;SDS011;10101;52.204;9.910;2023-04-19T02:23:42;5.23;;;2.87;;
19877;SDS011;10101;52.204;9.910;2023-04-19T02:26:09;5.93;;;2.73;;
19877;SDS011;10101;52.204;9.910;2023-04-19T02:28:37;3.43;;;2.50;;
19877;SDS011;10101;52.204;9.910;2023-04-19T02:31:05;6.70;;;2.70;;
19877;SDS011;10101;52.204;9.910;2023-04-19T02:33:32;6.83;;;2.63;;
19877;SDS011;10101;52.204;9.910;2023-04-19T02:35:59;3.77;;;2.40;;
19877;SDS011;10101;52.204;9.910;2023-04-19T02:38:26;3.63;;;2.13;;
19877;SDS011;10101;52.204;9.910;2023-04-19T02:40:52;5.87;;;2.40;;
19877;SDS011;10101;52.204;9.910;2023-04-19T02:43:19;5.83;;;2.57;;
19877;SDS011;10101;52.204;9.910;2023-04-19T02:45:46;5.60;;;2.57;;
19877;SDS011;10101;52.204;9.910;2023-04-19T02:48:14;4.37;;;2.50;;
19877;SDS011;10101;52.204;9.910;2023-04-19T02:50:40;4.77;;;2.97;;
19877;SDS011;10101;52.204;9.910;2023-04-19T02:53:07;8.00;;;3.10;;
19877;SDS011;10101;52.204;9.910;2023-04-19T02:55:34;5.20;;;2.47;;
19877;SDS011;10101;52.204;9.910;2023-04-19T02:58:00;6.83;;;2.50;;
19877;SDS011;10101;52.204;9.910;2023-04-19T03:00:27;4.93;;;2.47;;
19877;SDS011;10101;52.204;9.910;2023-04-19T03:02:55;5.17;;;2.40;;
19877;SDS011;10101;52.204;9.910;2023-04-19T03:05:23;4.20;;;2.50;;
19877;SDS011;10101;52.204;9.910;2023-04-19T03:07:50;4.67;;;2.80;;
19877;SDS011;10101;52.204;9.910;2023-04-19T03:10:16;4.13;;;2.53;;
19877;SDS011;10101;52.204;9.910;2023-04-19T03:12:43;6.50;;;2.80;;
19877;SDS011;10101;52.204;9.910;2023-04-19T03:15:10;5.83;;;2.50;;
19877;SDS011;10101;52.204;9.910;2023-04-19T03:17:37;5.20;;;2.53;;
19877;SDS011;10101;52.204;9.910;2023-04-19T03:20:04;5.87;;;2.77;;
19877;SDS011;10101;52.204;9.910;2023-04-19T03:22:36;6.77;;;2.93;;
19877;SDS011;10101;52.204;9.910;2023-04-19T03:25:03;4.87;;;2.43;;
19877;SDS011;10101;52.204;9.910;2023-04-19T03:27:32;3.07;;;2.37;;
19877;SDS011;10101;52.204;9.910;2023-04-19T03:29:59;6.80;;;2.93;;
19877;SDS011;10101;52.204;9.910;2023-04-19T03:32:26;5.70;;;2.70;;
19877;SDS011;10101;52.204;9.910;2023-04-19T03:34:52;4.37;;;2.60;;
19877;SDS011;10101;52.204;9.910;2023-04-19T03:37:19;4.60;;;2.87;;
19877;SDS011;10101;52.204;9.910;2023-04-19T03:39:47;4.07;;;2.73;;
19877;SDS011;10101;52.204;9.910;2023-04-19T03:42:14;6.23;;;2.80;;
19877;SDS011;10101;52.204;9.910;2023-04-19T03:44:40;5.77;;;2.60;;
19877;SDS011;10101;52.204;9.910;2023-04-19T03:47:07;5.97;;;2.97;;
19877;SDS011;10101;52.204;9.910;2023-04-19T03:49:34;4.90;;;2.17;;
19877;SDS011;10101;52.204;9.910;2023-04-19T03:52:01;7.30;;;2.80;;
19877;SDS011;10101;52.204;9.910;2023-04-19T03:54:27;5.37;;;2.60;;
19877;SDS011;10101;52.204;9.910;2023-04-19T03:56:55;5.37;;;2.70;;
19877;SDS011;10101;52.204;9.910;2023-04-19T03:59:22;5.63;;;2.87;;
19877;SDS011;10101;52.204;9.910;2023-04-19T04:01:49;9.70;;;2.93;;
19877;SDS011;10101;52.204;9.910;2023-04-19T04:04:16;5.60;;;2.17;;
19877;SDS011;10101;52.204;9.910;2023-04-19T04:06:42;6.23;;;2.50;;
19877;SDS011;10101;52.204;9.910;2023-04-19T04:09:09;5.43;;;2.50;;
19877;SDS011;10101;52.204;9.910;2023-04-19T04:11:36;5.73;;;2.53;;
19877;SDS011;10101;52.204;9.910;2023-04-19T04:14:04;6.27;;;2.80;;
19877;SDS011;10101;52.204;9.910;2023-04-19T04:16:31;6.10;;;3.03;;
19877;SDS011;10101;52.204;9.910;2023-04-19T04:18:58;4.17;;;2.13;;
19877;SDS011;10101;52.204;9.910;2023-04-19T04:21:24;5.57;;;2.97;;
19877;SDS011;10101;52.204;9.910;2023-04-19T04:23:52;4.13;;;2.57;;
19877;SDS011;10101;52.204;9.910;2023-04-19T04:26:18;5.63;;;2.50;;
19877;SDS011;10101;52.204;9.910;2023-04-19T04:28:45;5.73;;;2.60;;
19877;SDS011;10101;52.204;9.910;2023-04-19T04:31:14;6.77;;;2.60;;
19877;SDS011;10101;52.204;9.910;2023-04-19T04:33:42;8.57;;;3.10;;
19877;SDS011;10101;52.204;9.910;2023-04-19T04:36:09;5.27;;;3.00;;
19877;SDS011;10101;52.204;9.910;2023-04-19T04:38:36;4.03;;;2.50;;
19877;SDS011;10101;52.204;9.910;2023-04-19T04:41:03;3.97;;;2.60;;
19877;SDS011;10101;52.204;9.910;2023-04-19T04:43:30;8.43;;;3.37;;
19877;SDS011;10101;52.204;9.910;2023-04-19T04:45:58;4.93;;;2.83;;
19877;SDS011;10101;52.204;9.910;2023-04-19T04:48:27;9.53;;;4.27;;
19877;SDS011;10101;52.204;9.910;2023-04-19T04:50:55;5.77;;;2.87;;
19877;SDS011;10101;52.204;9.910;2023-04-19T04:53:22;8.90;;;3.40;;
19877;SDS011;10101;52.204;9.910;2023-04-19T04:55:51;4.73;;;2.70;;
19877;SDS011;10101;52.204;9.910;2023-04-19T04:58:18;5.27;;;3.03;;
19877;SDS011;10101;52.204;9.910;2023-04-19T05:00:45;7.40;;;2.80;;
19877;SDS011;10101;52.204;9.910;2023-04-19T05:03:12;3.80;;;2.33;;
19877;SDS011;10101;52.204;9.910;2023-04-19T05:05:41;7.60;;;2.93;;
19877;SDS011;10101;52.204;9.910;2023-04-19T05:08:07;6.80;;;2.50;;
19877;SDS011;10101;52.204;9.910;2023-04-19T05:10:34;6.50;;;2.77;;
19877;SDS011;10101;52.204;9.910;2023-04-19T05:13:01;6.63;;;2.37;;
19877;SDS011;10101;52.204;9.910;2023-04-19T05:15:27;3.50;;;2.43;;
19877;SDS011;10101;52.204;9.910;2023-04-19T05:17:54;2.87;;;2.07;;
19877;SDS011;10101;52.204;9.910;2023-04-19T05:20:21;4.17;;;2.30;;
19877;SDS011;10101;52.204;9.910;2023-04-19T05:22:49;4.13;;;2.20;;
19877;SDS011;10101;52.204;9.910;2023-04-19T05:25:21;4.67;;;2.40;;
19877;SDS011;10101;52.204;9.910;2023-04-19T05:27:48;4.00;;;1.87;;
19877;SDS011;10101;52.204;9.910;2023-04-19T05:30:14;3.47;;;2.20;;
19877;SDS011;10101;52.204;9.910;2023-04-19T05:32:41;4.67;;;2.20;;
19877;SDS011;10101;52.204;9.910;2023-04-19T05:35:08;5.70;;;2.20;;
19877;SDS011;10101;52.204;9.910;2023-04-19T05:37:35;6.40;;;2.43;;
19877;SDS011;10101;52.204;9.910;2023-04-19T05:40:04;2.97;;;2.10;;
19877;SDS011;10101;52.204;9.910;2023-04-19T05:42:34;5.13;;;2.00;;
19877;SDS011;10101;52.204;9.910;2023-04-19T05:45:01;3.23;;;2.10;;
19877;SDS011;10101;52.204;9.910;2023-04-19T05:47:27;3.60;;;1.80;;
19877;SDS011;10101;52.204;9.910;2023-04-19T05:49:54;5.23;;;2.00;;
19877;SDS011;10101;52.204;9.910;2023-04-19T05:52:21;5.23;;;2.13;;
19877;SDS011;10101;52.204;9.910;2023-04-19T05:54:47;4.63;;;1.87;;
19877;SDS011;10101;52.204;9.910;2023-04-19T05:57:16;2.63;;;1.90;;
19877;SDS011;10101;52.204;9.910;2023-04-19T05:59:42;4.40;;;2.00;;
19877;SDS011;10101;52.204;9.910;2023-04-19T06:02:09;2.40;;;1.87;;
19877;SDS011;10101;52.204;9.910;2023-04-19T06:04:36;3.07;;;1.77;;
19877;SDS011;10101;52.204;9.910;2023-04-19T06:07:02;2.40;;;1.70;;
19877;SDS011;10101;52.204;9.910;2023-04-19T06:09:29;3.60;;;2.00;;
19877;SDS011;10101;52.204;9.910;2023-04-19T06:11:56;4.33;;;2.23;;
19877;SDS011;10101;52.204;9.910;2023-04-19T06:14:25;4.67;;;2.37;;
19877;SDS011;10101;52.204;9.910;2023-04-19T06:16:53;3.30;;;2.20;;
19877;SDS011;10101;52.204;9.910;2023-04-19T06:19:20;4.90;;;1.80;;
19877;SDS011;10101;52.204;9.910;2023-04-19T06:21:46;5.60;;;1.80;;
19877;SDS011;10101;52.204;9.910;2023-04-19T06:24:13;4.83;;;1.90;;
19877;SDS011;10101;52.204;9.910;2023-04-19T06:26:40;4.20;;;2.87;;
19877;SDS011;10101;52.204;9.910;2023-04-19T06:29:07;2.87;;;2.10;;
19877;SDS011;10101;52.204;9.910;2023-04-19T06:31:35;4.23;;;2.00;;
19877;SDS011;10101;52.204;9.910;2023-04-19T06:34:02;6.40;;;3.40;;
19877;SDS011;10101;52.204;9.910;2023-04-19T06:36:28;8.40;;;3.30;;
19877;SDS011;10101;52.204;9.910;2023-04-19T06:38:55;7.07;;;2.93;;
19877;SDS011;10101;52.204;9.910;2023-04-19T06:41:22;7.47;;;2.30;;
19877;SDS011;10101;52.204;9.910;2023-04-19T06:43:48;2.80;;;2.23;;
19877;SDS011;10101;52.204;9.910;2023-04-19T06:46:15;3.73;;;1.63;;
19877;SDS011;10101;52.204;9.910;2023-04-19T06:48:43;6.63;;;3.20;;
19877;SDS011;10101;52.204;9.910;2023-04-19T06:51:10;12.03;;;4.63;;
19877;SDS011;10101;52.204;9.910;2023-04-19T06:53:37;9.40;;;4.53;;
19877;SDS011;10101;52.204;9.910;2023-04-19T06:56:04;4.67;;;2.50;;
19877;SDS011;10101;52.204;9.910;2023-04-19T06:58:31;5.83;;;2.30;;
19877;SDS011;10101;52.204;9.910;2023-04-19T07:00:58;6.17;;;2.77;;
19877;SDS011;10101;52.204;9.910;2023-04-19T07:03:25;4.73;;;2.00;;
19877;SDS011;10101;52.204;9.910;2023-04-19T07:05:53;2.87;;;2.10;;
19877;SDS011;10101;52.204;9.910;2023-04-19T07:08:21;2.10;;;1.70;;
19877;SDS011;10101;52.204;9.910;2023-04-19T07:10:48;2.77;;;2.00;;
19877;SDS011;10101;52.204;9.910;2023-04-19T07:13:15;4.00;;;1.80;;
19877;SDS011;10101;52.204;9.910;2023-04-19T07:15:42;3.03;;;1.97;;
19877;SDS011;10101;52.204;9.910;2023-04-19T07:18:09;4.27;;;2.03;;
19877;SDS011;10101;52.204;9.910;2023-04-19T07:20:39;2.97;;;1.77;;
19877;SDS011;10101;52.204;9.910;2023-04-19T07:23:11;1.90;;;1.40;;
19877;SDS011;10101;52.204;9.910;2023-04-19T07:25:44;4.27;;;2.13;;
19877;SDS011;10101;52.204;9.910;2023-04-19T07:28:15;3.57;;;2.53;;
19877;SDS011;10101;52.204;9.910;2023-04-19T07:30:57;2.50;;;1.60;;
19877;SDS011;10101;52.204;9.910;2023-04-19T07:33:36;3.13;;;2.00;;
19877;SDS011;10101;52.204;9.910;2023-04-19T07:36:11;3.77;;;1.80;;
19877;SDS011;10101;52.204;9.910;2023-04-19T07:38:49;4.60;;;2.07;;
19877;SDS011;10101;52.204;9.910;2023-04-19T07:41:16;2.53;;;1.70;;
19877;SDS011;10101;52.204;9.910;2023-04-19T07:43:43;2.50;;;1.83;;
19877;SDS011;10101;52.204;9.910;2023-04-19T07:46:10;3.63;;;1.90;;
19877;SDS011;10101;52.204;9.910;2023-04-19T07:48:37;2.87;;;1.77;;
19877;SDS011;10101;52.204;9.910;2023-04-19T07:51:08;2.97;;;1.80;;
19877;SDS011;10101;52.204;9.910;2023-04-19T07:53:35;2.83;;;1.90;;
19877;SDS011;10101;52.204;9.910;2023-04-19T07:56:05;5.67;;;1.70;;
19877;SDS011;10101;52.204;9.910;2023-04-19T07:58:32;5.50;;;2.00;;
19877;SDS011;10101;52.204;9.910;2023-04-19T08:00:59;3.83;;;1.87;;
19877;SDS011;10101;52.204;9.910;2023-04-19T08:03:26;2.53;;;1.87;;
19877;SDS011;10101;52.204;9.910;2023-04-19T08:05:53;2.60;;;1.90;;
19877;SDS011;10101;52.204;9.910;2023-04-19T08:08:19;4.13;;;2.03;;
19877;SDS011;10101;52.204;9.910;2023-04-19T08:10:46;3.13;;;2.07;;
19877;SDS011;10101;52.204;9.910;2023-04-19T08:13:14;3.40;;;1.60;;
19877;SDS011;10101;52.204;9.910;2023-04-19T08:15:41;2.70;;;2.00;;
19877;SDS011;10101;52.204;9.910;2023-04-19T08:18:08;4.70;;;1.93;;
19877;SDS011;10101;52.204;9.910;2023-04-19T08:20:35;2.40;;;1.40;;
19877;SDS011;10101;52.204;9.910;2023-04-19T08:23:02;2.37;;;1.87;;
19877;SDS011;10101;52.204;9.910;2023-04-19T08:25:30;2.50;;;1.87;;
19877;SDS011;10101;52.204;9.910;2023-04-19T08:27:57;3.83;;;2.10;;
19877;SDS011;10101;52.204;9.910;2023-04-19T08:30:25;3.90;;;1.90;;
19877;SDS011;10101;52.204;9.910;2023-04-19T08:32:51;3.00;;;1.87;;
19877;SDS011;10101;52.204;9.910;2023-04-19T14:32:10;2.67;;;1.90;;
19877;SDS011;10101;52.204;9.910;2023-04-19T14:34:37;2.40;;;2.10;;
19877;SDS011;10101;52.204;9.910;2023-04-19T14:37:03;2.30;;;2.10;;
19877;SDS011;10101;52.204;9.910;2023-04-19T14:39:30;5.17;;;2.13;;
19877;SDS011;10101;52.204;9.910;2023-04-19T14:41:57;2.90;;;1.87;;
19877;SDS011;10101;52.204;9.910;2023-04-19T14:44:24;6.33;;;2.00;;
19877;SDS011;10101;52.204;9.910;2023-04-19T14:46:51;3.67;;;1.90;;
19877;SDS011;10101;52.204;9.910;2023-04-19T14:49:19;2.97;;;1.93;;
19877;SDS011;10101;52.204;9.910;2023-04-19T14:51:45;5.27;;;2.00;;
19877;SDS011;10101;52.204;9.910;2023-04-19T14:54:12;4.03;;;2.07;;
19877;SDS011;10101;52.204;9.910;2023-04-19T14:56:39;4.50;;;2.20;;
19877;SDS011;10101;52.204;9.910;2023-04-19T14:59:06;4.53;;;2.03;;
19877;SDS011;10101;52.204;9.910;2023-04-19T15:01:33;3.07;;;2.13;;
19877;SDS011;10101;52.204;9.910;2023-04-19T15:03:59;4.03;;;2.10;;
19877;SDS011;10101;52.204;9.910;2023-04-19T15:06:28;2.53;;;2.10;;
19877;SDS011;10101;52.204;9.910;2023-04-19T15:08:55;3.70;;;1.97;;
19877;SDS011;10101;52.204;9.910;2023-04-19T15:11:22;3.97;;;2.00;;
19877;SDS011;10101;52.204;9.910;2023-04-19T15:13:49;3.97;;;2.07;;
19877;SDS011;10101;52.204;9.910;2023-04-19T15:16:16;4.47;;;2.50;;
19877;SDS011;10101;52.204;9.910;2023-04-19T15:18:43;3.37;;;2.07;;
19877;SDS011;10101;52.204;9.910;2023-04-19T15:21:10;2.70;;;2.03;;
19877;SDS011;10101;52.204;9.910;2023-04-19T15:23:38;3.40;;;2.30;;
19877;SDS011;10101;52.204;9.910;2023-04-19T15:26:05;4.97;;;2.33;;
19877;SDS011;10101;52.204;9.910;2023-04-19T15:28:32;5.07;;;2.03;;
19877;SDS011;10101;52.204;9.910;2023-04-19T15:31:01;4.03;;;2.13;;
19877;SDS011;10101;52.204;9.910;2023-04-19T15:33:29;3.30;;;2.07;;
19877;SDS011;10101;52.204;9.910;2023-04-19T15:35:56;8.67;;;2.20;;
19877;SDS011;10101;52.204;9.910;2023-04-19T15:38:24;2.93;;;2.17;;
19877;SDS011;10101;52.204;9.910;2023-04-19T15:40:54;5.83;;;2.30;;
19877;SDS011;10101;52.204;9.910;2023-04-19T15:43:22;5.17;;;2.20;;
19877;SDS011;10101;52.204;9.910;2023-04-19T15:45:50;5.57;;;2.33;;
19877;SDS011;10101;52.204;9.910;2023-04-19T15:48:17;3.53;;;2.10;;
19877;SDS011;10101;52.204;9.910;2023-04-19T15:50:45;3.57;;;2.40;;
19877;SDS011;10101;52.204;9.910;2023-04-19T15:53:12;3.50;;;2.10;;
19877;SDS011;10101;52.204;9.910;2023-04-19T15:55:38;6.13;;;2.00;;
19877;SDS011;10101;52.204;9.910;2023-04-19T15:58:07;4.47;;;2.20;;
19877;SDS011;10101;52.204;9.910;2023-04-19T16:00:34;3.50;;;2.30;;
19877;SDS011;10101;52.204;9.910;2023-04-19T16:03:00;7.07;;;2.13;;
19877;SDS011;10101;52.204;9.910;2023-04-19T16:05:27;4.80;;;2.10;;
19877;SDS011;10101;52.204;9.910;2023-04-19T16:08:00;3.67;;;2.10;;
19877;SDS011;10101;52.204;9.910;2023-04-19T16:10:28;2.63;;;2.03;;
19877;SDS011;10101;52.204;9.910;2023-04-19T16:12:55;2.80;;;1.90;;
19877;SDS011;10101;52.204;9.910;2023-04-19T16:15:23;4.77;;;2.00;;
19877;SDS011;10101;52.204;9.910;2023-04-19T16:17:50;3.00;;;1.97;;
19877;SDS011;10101;52.204;9.910;2023-04-19T16:20:17;8.07;;;1.90;;
19877;SDS011;10101;52.204;9.910;2023-04-19T16:22:44;3.07;;;1.80;;
19877;SDS011;10101;52.204;9.910;2023-04-19T16:25:11;4.10;;;2.10;;
19877;SDS011;10101;52.204;9.910;2023-04-19T16:27:39;4.77;;;2.20;;
19877;SDS011;10101;52.204;9.910;2023-04-19T16:30:07;4.83;;;2.07;;
19877;SDS011;10101;52.204;9.910;2023-04-19T16:32:36;2.60;;;1.83;;
19877;SDS011;10101;52.204;9.910;2023-04-19T16:35:03;3.90;;;1.83;;
19877;SDS011;10101;52.204;9.910;2023-04-19T16:37:31;4.77;;;1.97;;
19877;SDS011;10101;52.204;9.910;2023-04-19T16:39:58;5.23;;;1.90;;
19877;SDS011;10101;52.204;9.910;2023-04-19T16:42:25;7.03;;;2.27;;
19877;SDS011;10101;52.204;9.910;2023-04-19T16:44:51;6.20;;;2.33;;
19877;SDS011;10101;52.204;9.910;2023-04-19T16:47:18;3.33;;;2.23;;
19877;SDS011;10101;52.204;9.910;2023-04-19T16:49:47;4.13;;;2.10;;
19877;SDS011;10101;52.204;9.910;2023-04-19T16:52:14;4.50;;;2.10;;
19877;SDS011;10101;52.204;9.910;2023-04-19T16:54:41;3.90;;;2.60;;
19877;SDS011;10101;52.204;9.910;2023-04-19T16:57:08;4.83;;;2.23;;
19877;SDS011;10101;52.204;9.910;2023-04-19T16:59:35;3.77;;;2.30;;
19877;SDS011;10101;52.204;9.910;2023-04-19T17:02:02;3.80;;;2.20;;
19877;SDS011;10101;52.204;9.910;2023-04-19T17:04:31;5.30;;;2.33;;
19877;SDS011;10101;52.204;9.910;2023-04-19T17:06:59;4.30;;;2.40;;
19877;SDS011;10101;52.204;9.910;2023-04-19T17:09:26;5.17;;;2.30;;
19877;SDS011;10101;52.204;9.910;2023-04-19T17:11:53;4.10;;;2.63;;
19877;SDS011;10101;52.204;9.910;2023-04-19T17:14:20;7.87;;;3.37;;
19877;SDS011;10101;52.204;9.910;2023-04-19T17:16:47;4.77;;;2.40;;
19877;SDS011;10101;52.204;9.910;2023-04-19T17:19:14;3.43;;;2.50;;
19877;SDS011;10101;52.204;9.910;2023-04-19T17:21:41;3.13;;;2.20;;
19877;SDS011;10101;52.204;9.910;2023-04-19T17:24:09;4.97;;;2.83;;
19877;SDS011;10101;52.204;9.910;2023-04-19T17:26:36;3.70;;;2.37;;
19877;SDS011;10101;52.204;9.910;2023-04-19T17:29:03;3.33;;;2.27;;
19877;SDS011;10101;52.204;9.910;2023-04-19T17:31:30;6.87;;;2.53;;
19877;SDS011;10101;52.204;9.910;2023-04-19T17:33:57;3.87;;;2.30;;
19877;SDS011;10101;52.204;9.910;2023-04-19T17:36:24;3.63;;;2.27;;
19877;SDS011;10101;52.204;9.910;2023-04-19T17:38:52;7.23;;;2.50;;
19877;SDS011;10101;52.204;9.910;2023-04-19T17:41:20;4.67;;;2.40;;
19877;SDS011;10101;52.204;9.910;2023-04-19T17:43:46;5.73;;;2.53;;
19877;SDS011;10101;52.204;9.910;2023-04-19T17:46:14;5.03;;;2.57;;
19877;SDS011;10101;52.204;9.910;2023-04-19T17:48:42;6.13;;;2.83;;
19877;SDS011;10101;52.204;9.910;2023-04-19T17:51:09;4.83;;;2.30;;
19877;SDS011;10101;52.204;9.910;2023-04-19T17:53:36;3.90;;;2.47;;
19877;SDS011;10101;52.204;9.910;2023-04-19T17:56:03;4.20;;;2.33;;
19877;SDS011;10101;52.204;9.910;2023-04-19T17:58:31;4.80;;;2.60;;
19877;SDS011;10101;52.204;9.910;2023-04-19T18:00:59;4.77;;;2.23;;
19877;SDS011;10101;52.204;9.910;2023-04-19T18:03:27;5.30;;;2.50;;
19877;SDS011;10101;52.204;9.910;2023-04-19T18:05:54;4.67;;;2.30;;
19877;SDS011;10101;52.204;9.910;2023-04-19T18:08:21;2.93;;;2.00;;
19877;SDS011;10101;52.204;9.910;2023-04-19T18:10:48;2.27;;;2.07;;
19877;SDS011;10101;52.204;9.910;2023-04-19T18:13:15;4.20;;;2.40;;
19877;SDS011;10101;52.204;9.910;2023-04-19T18:15:43;4.13;;;2.23;;
19877;SDS011;10101;52.204;9.910;2023-04-19T18:18:10;5.00;;;2.27;;
19877;SDS011;10101;52.204;9.910;2023-04-19T18:20:36;12.57;;;5.00;;
19877;SDS011;10101;52.204;9.910;2023-04-19T18:23:03;10.80;;;5.37;;
19877;SDS011;10101;52.204;9.910;2023-04-19T18:25:30;5.57;;;2.67;;
19877;SDS011;10101;52.204;9.910;2023-04-19T18:27:59;5.10;;;2.43;;
19877;SDS011;10101;52.204;9.910;2023-04-19T18:30:25;3.90;;;2.53;;
19877;SDS011;10101;52.204;9.910;2023-04-19T18:32:54;5.37;;;2.40;;
19877;SDS011;10101;52.204;9.910;2023-04-19T18:35:20;3.37;;;2.67;;
19877;SDS011;10101;52.204;9.910;2023-04-19T18:37:47;5.50;;;2.30;;
19877;SDS011;10101;52.204;9.910;2023-04-19T18:40:14;4.07;;;2.40;;
19877;SDS011;10101;52.204;9.910;2023-04-19T18:42:41;5.57;;;2.47;;
19877;SDS011;10101;52.204;9.910;2023-04-19T18:45:08;6.00;;;2.60;;
19877;SDS011;10101;52.204;9.910;2023-04-19T18:47:35;9.17;;;2.30;;
19877;SDS011;10101;52.204;9.910;2023-04-19T18:50:04;5.83;;;2.20;;
19877;SDS011;10101;52.204;9.910;2023-04-19T18:52:33;6.77;;;2.57;;
19877;SDS011;10101;52.204;9.910;2023-04-19T18:55:00;3.30;;;2.13;;
19877;SDS011;10101;52.204;9.910;2023-04-19T18:57:27;3.87;;;2.40;;
19877;SDS011;10101;52.204;9.910;2023-04-19T18:59:54;3.43;;;1.90;;
19877;SDS011;10101;52.204;9.910;2023-04-19T19:02:21;4.90;;;2.37;;
19877;SDS011;10101;52.204;9.910;2023-04-19T19:04:48;3.10;;;2.17;;
19877;SDS011;10101;52.204;9.910;2023-04-19T19:07:16;7.73;;;2.60;;
19877;SDS011;10101;52.204;9.910;2023-04-19T19:09:43;4.00;;;2.53;;
19877;SDS011;10101;52.204;9.910;2023-04-19T19:12:09;3.23;;;2.20;;
19877;SDS011;10101;52.204;9.910;2023-04-19T19:14:36;8.83;;;2.57;;
19877;SDS011;10101;52.204;9.910;2023-04-19T19:17:03;3.33;;;2.20;;
19877;SDS011;10101;52.204;9.910;2023-04-19T19:19:30;6.37;;;2.63;;
19877;SDS011;10101;52.204;9.910;2023-04-19T19:21:57;4.93;;;2.37;;
19877;SDS011;10101;52.204;9.910;2023-04-19T19:24:25;9.97;;;2.47;;
19877;SDS011;10101;52.204;9.910;2023-04-19T19:26:52;6.17;;;5.20;;
19877;SDS011;10101;52.204;9.910;2023-04-19T19:29:19;5.03;;;2.33;;
19877;SDS011;10101;52.204;9.910;2023-04-19T19:31:45;3.77;;;2.47;;
19877;SDS011;10101;52.204;9.910;2023-04-19T19:34:12;3.83;;;2.03;;
19877;SDS011;10101;52.204;9.910;2023-04-19T19:36:39;3.30;;;2.20;;
19877;SDS011;10101;52.204;9.910;2023-04-19T19:39:07;3.47;;;2.07;;
19877;SDS011;10101;52.204;9.910;2023-04-19T19:41:36;2.77;;;2.10;;
19877;SDS011;10101;52.204;9.910;2023-04-19T19:44:05;4.47;;;2.83;;
19877;SDS011;10101;52.204;9.910;2023-04-19T19:46:32;4.90;;;2.80;;
19877;SDS011;10101;52.204;9.910;2023-04-19T19:48:59;5.10;;;3.37;;
19877;SDS011;10101;52.204;9.910;2023-04-19T19:51:25;6.10;;;2.57;;
19877;SDS011;10101;52.204;9.910;2023-04-19T19:53:52;4.17;;;2.70;;
19877;SDS011;10101;52.204;9.910;2023-04-19T19:56:19;4.23;;;2.70;;
19877;SDS011;10101;52.204;9.910;2023-04-19T19:58:47;4.37;;;2.90;;
19877;SDS011;10101;52.204;9.910;2023-04-19T20:01:14;11.10;;;3.43;;
19877;SDS011;10101;52.204;9.910;2023-04-19T20:03:41;5.73;;;3.07;;
19877;SDS011;10101;52.204;9.910;2023-04-19T20:06:08;7.23;;;3.50;;
19877;SDS011;10101;52.204;9.910;2023-04-19T20:08:35;5.90;;;3.40;;
19877;SDS011;10101;52.204;9.910;2023-04-19T20:11:02;5.13;;;3.00;;
19877;SDS011;10101;52.204;9.910;2023-04-19T20:13:29;4.10;;;3.00;;
19877;SDS011;10101;52.204;9.910;2023-04-19T20:15:57;7.03;;;3.60;;
19877;SDS011;10101;52.204;9.910;2023-04-19T20:18:24;6.47;;;3.70;;
19877;SDS011;10101;52.204;9.910;2023-04-19T20:20:51;5.77;;;3.30;;
19877;SDS011;10101;52.204;9.910;2023-04-19T20:23:18;7.37;;;3.40;;
19877;SDS011;10101;52.204;9.910;2023-04-19T20:25:46;5.33;;;3.07;;
19877;SDS011;10101;52.204;9.910;2023-04-19T20:28:12;5.10;;;3.43;;
19877;SDS011;10101;52.204;9.910;2023-04-19T20:30:39;4.30;;;3.13;;
19877;SDS011;10101;52.204;9.910;2023-04-19T20:33:07;5.20;;;3.17;;
19877;SDS011;10101;52.204;9.910;2023-04-19T20:35:34;6.77;;;3.43;;
19877;SDS011;10101;52.204;9.910;2023-04-19T20:38:01;4.43;;;3.30;;
19877;SDS011;10101;52.204;9.910;2023-04-19T20:40:28;5.07;;;3.10;;
19877;SDS011;10101;52.204;9.910;2023-04-19T20:42:57;5.63;;;3.60;;
19877;SDS011;10101;52.204;9.910;2023-04-19T20:45:24;5.63;;;3.07;;